Portada
METAR-TAF:

METAR-TAF

Aeroports :

Granada, Espanya

latitud: 37-11N, longitud: 003-47W, altitud: 567 m

Observació

L'informe es va fer fa 39 minuts, a les 13:00 UTC
Vent 8 kt del Nord-Oest, variant entre Oest/Sud-Oest i Nord/Nord-Est
Temperatura 34°C
Humitat 15%
Pressió 1016 hPa
Visibilitat 10 km o més
sense núvols per sota de 1500 mi sense presència de cumulonimbus.

METAR: LEGR 191300Z 31008KT 250V020 CAVOK 34/04 Q1016

Hora: 15:39 (13:39 UTC)

Pronòstic

L'informe es va fer fa 5 hores i 39 minuts, a les 08:00 UTC
Pronòstic vàlid del 19 a les 09 UTC al 20 a les 09 UTC
Vent 2 kt amb direcció variable
Visibilitat 10 km o més
sense núvols per sota de 1500 mi sense presència de cumulonimbus.
Temporalment
l' 19 a les 12 UTC al 19 a les 20 UTC
Vent 10 kt del Oest/Nord-Oest

TAF: LEGR 190800Z 1909/2009 VRB02KT CAVOK TX38/1915Z TN17/2005Z TEMPO 1912/1920 29010KT

Observacions i pronòstics meteorològics de més de 4000 aeroports (METAR i TAF).

Les estacions disponibles són els punts grocs i vermells al mapa.

Posi el ratolí al punt desitjat per veure el nom de l'estació.

Feu clic per veure les observacions i els pronòstics meteorològics.

Per canviar el mapa: feu clic els botons verds amb una creu de color negre per apropar; al botó verd amb un guió per allunyar la imatge; o en les fletxes verdes per a mapes adjacents.


METAR-TAF: